Nissho Maru No.18 — JL6369 — position and weather

sailwx.info

Track history (hours):
 
Tides and Currents Weather Stations Pressure Air Temp Water Temp Dewpoint Dewpoint Depression Visibility Wind Speed Wind Dir Waves Ship Positions

Nissho Maru No.18

Last reported at 2016-Feb-10 05:29 UTC. Time now 2016-Feb-11 08:48 UTC.
Position N 34°24' E 135°00'.

Length 65 m; draft 4 m.

Type: Tanker. MMSI: 431500465.

Date/timePositionNaut miles runAvg speedWind from/ knotsBaromVisibWave heightAir tempDewpointWater temp
2016-Feb-10 05:29N 34°24' E 135°00'1112.0
2016-Feb-10 04:32N 34°35' E 135°03'4 0.4
2016-Feb-09 18:33N 34°38' E 134°59'5 5.4
2016-Feb-09 17:33N 34°35' E 135°05'9 8.8
2016-Feb-09 16:33N 34°27' E 135°03'10 8.8
2016-Feb-09 15:22N 34°17' E 134°59'7 8.9
2016-Feb-09 14:33N 34°09' E 135°00'242 7.6
2016-Feb-08 06:33N 35°11' E 139°45'9 9.1
2016-Feb-08 05:33N 35°19' E 139°43'9 9.1
2016-Feb-08 04:33N 35°28' E 139°48'10 9.9
2016-Feb-08 03:33N 35°29' E 139°60'1 1.0
2016-Feb-08 02:33N 35°29' E 140°01'0 0.0
2016-Feb-08 01:33N 35°29' E 140°01'0 0.0
2016-Feb-08 00:33N 35°29' E 140°01'0 0.0
2016-Feb-07 23:33N 35°29' E 140°01'2 1.7
2016-Feb-07 22:33N 35°30' E 139°59'4 3.6
2016-Feb-07 21:33N 35°28' E 139°55'0 0.0
2016-Feb-07 20:30N 35°28' E 139°55'0 0.0
2016-Feb-07 19:18N 35°28' E 139°55'0 0.0
2016-Feb-07 18:33N 35°28' E 139°55'9 8.9
2016-Feb-07 17:33N 35°23' E 139°46'1110.6
2016-Feb-07 16:34N 35°13' E 139°47'6811.0
2016-Feb-07 10:20N 34°34' E 138°39'183 8.7
2016-Feb-06 13:18N 34°12' E 134°59'1011.9
2016-Feb-06 12:27N 34°22' E 134°60'1011.4
2016-Feb-06 11:33N 34°32' E 135°02'16 0.4
2016-Feb-04 19:06N 34°41' E 134°46'811.6
2016-Feb-04 18:22N 34°37' E 134°55'810.0
2016-Feb-04 17:33N 34°35' E 135°05'1010.0
2016-Feb-04 16:34N 34°26' E 135°03'1010.0
2016-Feb-04 15:33N 34°16' E 134°59'10 9.6
2016-Feb-04 14:31N 34°06' E 135°00'239 8.4
2016-Feb-03 10:05N 35°07' E 139°42'610.7
2016-Feb-03 09:33N 35°11' E 139°45'1010.2
2016-Feb-03 08:33N 35°21' E 139°42'1010.1
2016-Feb-03 07:33N 35°29' E 139°50'9 8.6
2016-Feb-03 06:33N 35°29' E 140°01'0 0.0
2016-Feb-03 03:33N 35°29' E 140°01'0 0.0
2016-Feb-03 02:33N 35°29' E 140°01'0 0.0
2016-Feb-03 01:34N 35°29' E 140°01'0 0.0
2016-Feb-03 00:33N 35°29' E 140°01'0 0.0
2016-Feb-02 23:33N 35°29' E 140°01'1 0.6
2016-Feb-02 22:34N 35°29' E 140°00'4 3.4
2016-Feb-02 21:26N 35°29' E 139°56'0 0.0
2016-Feb-02 20:32N 35°29' E 139°56'0 0.0
2016-Feb-02 19:32N 35°29' E 139°56'0 0.0
2016-Feb-02 18:29N 35°29' E 139°56'0 0.0
2016-Feb-02 17:32N 35°29' E 139°56'0 0.0
2016-Feb-02 16:32N 35°29' E 139°56'0 0.0
2016-Feb-02 15:32N 35°29' E 139°56'0 0.0
2016-Feb-02 14:29N 35°29' E 139°56'0 0.0
2016-Feb-02 13:29N 35°29' E 139°56'0 0.0
2016-Feb-02 12:29N 35°29' E 139°56'0 0.0
2016-Feb-02 11:32N 35°29' E 139°56'0 0.0
2016-Feb-02 10:32N 35°29' E 139°56'0 0.0
2016-Feb-02 09:26N 35°29' E 139°56'0 0.0
2016-Feb-02 08:29N 35°29' E 139°56'0 0.0
2016-Feb-02 07:29N 35°29' E 139°56'0 0.1
2016-Feb-02 06:32N 35°29' E 139°56'5 5.6
2016-Feb-02 05:33N 35°34' E 139°58'6 6.3
2016-Feb-02 04:34N 35°33' E 140°05'0 0.1
2016-Feb-02 03:34N 35°33' E 140°05'0 0.0
2016-Feb-02 02:34N 35°33' E 140°05'1 0.7
2016-Feb-02 01:28N 35°33' E 140°05'0 0.1
2016-Feb-02 00:28N 35°33' E 140°05'0 0.1
2016-Feb-01 23:28N 35°33' E 140°05'0 0.0
2016-Feb-01 22:19N 35°33' E 140°05'0 0.0
2016-Feb-01 21:31N 35°33' E 140°05'0 0.0
2016-Feb-01 20:19N 35°33' E 140°05'0 0.0
2016-Feb-01 19:32N 35°33' E 140°05'7 7.4
2016-Feb-01 18:33N 35°31' E 139°56'1010.3
2016-Feb-01 17:33N 35°25' E 139°47'9 9.0
2016-Feb-01 16:33N 35°16' E 139°47'1010.2
2016-Feb-01 15:33N 35°05' E 139°45'15 7.7
2016-Feb-01 13:34N 34°53' E 139°57'1110.8
2016-Feb-01 12:31N 34°60' E 140°09'2110.8
2016-Feb-01 10:32N 35°14' E 140°28'1210.9
2016-Feb-01 09:28N 35°23' E 140°37'35 9.0
2016-Feb-01 05:33N 35°58' E 140°43'4 1.4
2016-Feb-01 02:22N 35°54' E 140°41'4 0.9
2016-Jan-31 22:05N 35°57' E 140°42'61 8.7
2016-Jan-31 15:04N 35°01' E 140°14'610.8
2016-Jan-31 14:30N 34°58' E 140°08'1111.1
2016-Jan-31 13:33N 34°53' E 139°57'13 9.4
2016-Jan-31 12:11N 34°59' E 139°43'710.6
2016-Jan-31 11:33N 35°06' E 139°45'1110.7
2016-Jan-31 10:33N 35°16' E 139°46'10 9.6
2016-Jan-31 09:33N 35°26' E 139°44'6 5.7
2016-Jan-31 08:33N 35°31' E 139°46'0 0.0
2016-Jan-31 07:33N 35°31' E 139°46'0 0.0
2016-Jan-31 06:33N 35°31' E 139°46'0 0.0
2016-Jan-31 05:33N 35°31' E 139°46'  
Track history (hours):
 
Tides and Currents Weather Stations Pressure Air Temp Water Temp Dewpoint Dewpoint Depression Visibility Wind Speed Wind Dir Waves Ship Positions

Nissho Maru No.18

Last reported at 2016-Feb-10 05:29 UTC. Time now 2016-Feb-11 08:48 UTC.
Position N 34°24' E 135°00'.

Length 65 m; draft 4 m.

Type: Tanker. MMSI: 431500465.

Date/timePositionNaut miles runAvg speedWind from/ knotsBaromVisibWave heightAir tempDewpointWater temp
2016-Feb-10 05:29N 34°24' E 135°00'1112.0
2016-Feb-10 04:32N 34°35' E 135°03'4 0.4
2016-Feb-09 18:33N 34°38' E 134°59'5 5.4
2016-Feb-09 17:33N 34°35' E 135°05'9 8.8
2016-Feb-09 16:33N 34°27' E 135°03'10 8.8
2016-Feb-09 15:22N 34°17' E 134°59'7 8.9
2016-Feb-09 14:33N 34°09' E 135°00'242 7.6
2016-Feb-08 06:33N 35°11' E 139°45'9 9.1
2016-Feb-08 05:33N 35°19' E 139°43'9 9.1
2016-Feb-08 04:33N 35°28' E 139°48'10 9.9
2016-Feb-08 03:33N 35°29' E 139°60'1 1.0
2016-Feb-08 02:33N 35°29' E 140°01'0 0.0
2016-Feb-08 01:33N 35°29' E 140°01'0 0.0
2016-Feb-08 00:33N 35°29' E 140°01'0 0.0
2016-Feb-07 23:33N 35°29' E 140°01'2 1.7
2016-Feb-07 22:33N 35°30' E 139°59'4 3.6
2016-Feb-07 21:33N 35°28' E 139°55'0 0.0
2016-Feb-07 20:30N 35°28' E 139°55'0 0.0
2016-Feb-07 19:18N 35°28' E 139°55'0 0.0
2016-Feb-07 18:33N 35°28' E 139°55'9 8.9
2016-Feb-07 17:33N 35°23' E 139°46'1110.6
2016-Feb-07 16:34N 35°13' E 139°47'6811.0
2016-Feb-07 10:20N 34°34' E 138°39'183 8.7
2016-Feb-06 13:18N 34°12' E 134°59'1011.9
2016-Feb-06 12:27N 34°22' E 134°60'1011.4
2016-Feb-06 11:33N 34°32' E 135°02'16 0.4
2016-Feb-04 19:06N 34°41' E 134°46'811.6
2016-Feb-04 18:22N 34°37' E 134°55'810.0
2016-Feb-04 17:33N 34°35' E 135°05'1010.0
2016-Feb-04 16:34N 34°26' E 135°03'1010.0
2016-Feb-04 15:33N 34°16' E 134°59'10 9.6
2016-Feb-04 14:31N 34°06' E 135°00'239 8.4
2016-Feb-03 10:05N 35°07' E 139°42'610.7
2016-Feb-03 09:33N 35°11' E 139°45'1010.2
2016-Feb-03 08:33N 35°21' E 139°42'1010.1
2016-Feb-03 07:33N 35°29' E 139°50'9 8.6
2016-Feb-03 06:33N 35°29' E 140°01'0 0.0
2016-Feb-03 03:33N 35°29' E 140°01'0 0.0
2016-Feb-03 02:33N 35°29' E 140°01'0 0.0
2016-Feb-03 01:34N 35°29' E 140°01'0 0.0
2016-Feb-03 00:33N 35°29' E 140°01'0 0.0
2016-Feb-02 23:33N 35°29' E 140°01'1 0.6
2016-Feb-02 22:34N 35°29' E 140°00'4 3.4
2016-Feb-02 21:26N 35°29' E 139°56'0 0.0
2016-Feb-02 20:32N 35°29' E 139°56'0 0.0
2016-Feb-02 19:32N 35°29' E 139°56'0 0.0
2016-Feb-02 18:29N 35°29' E 139°56'0 0.0
2016-Feb-02 17:32N 35°29' E 139°56'0 0.0
2016-Feb-02 16:32N 35°29' E 139°56'0 0.0
2016-Feb-02 15:32N 35°29' E 139°56'0 0.0
2016-Feb-02 14:29N 35°29' E 139°56'0 0.0
2016-Feb-02 13:29N 35°29' E 139°56'0 0.0
2016-Feb-02 12:29N 35°29' E 139°56'0 0.0
2016-Feb-02 11:32N 35°29' E 139°56'0 0.0
2016-Feb-02 10:32N 35°29' E 139°56'0 0.0
2016-Feb-02 09:26N 35°29' E 139°56'0 0.0
2016-Feb-02 08:29N 35°29' E 139°56'0 0.0
2016-Feb-02 07:29N 35°29' E 139°56'0 0.1
2016-Feb-02 06:32N 35°29' E 139°56'5 5.6
2016-Feb-02 05:33N 35°34' E 139°58'6 6.3
2016-Feb-02 04:34N 35°33' E 140°05'0 0.1
2016-Feb-02 03:34N 35°33' E 140°05'0 0.0
2016-Feb-02 02:34N 35°33' E 140°05'1 0.7
2016-Feb-02 01:28N 35°33' E 140°05'0 0.1
2016-Feb-02 00:28N 35°33' E 140°05'0 0.1
2016-Feb-01 23:28N 35°33' E 140°05'0 0.0
2016-Feb-01 22:19N 35°33' E 140°05'0 0.0
2016-Feb-01 21:31N 35°33' E 140°05'0 0.0
2016-Feb-01 20:19N 35°33' E 140°05'0 0.0
2016-Feb-01 19:32N 35°33' E 140°05'7 7.4
2016-Feb-01 18:33N 35°31' E 139°56'1010.3
2016-Feb-01 17:33N 35°25' E 139°47'9 9.0
2016-Feb-01 16:33N 35°16' E 139°47'1010.2
2016-Feb-01 15:33N 35°05' E 139°45'15 7.7
2016-Feb-01 13:34N 34°53' E 139°57'1110.8
2016-Feb-01 12:31N 34°60' E 140°09'2110.8
2016-Feb-01 10:32N 35°14' E 140°28'1210.9
2016-Feb-01 09:28N 35°23' E 140°37'35 9.0
2016-Feb-01 05:33N 35°58' E 140°43'4 1.4
2016-Feb-01 02:22N 35°54' E 140°41'4 0.9
2016-Jan-31 22:05N 35°57' E 140°42'61 8.7
2016-Jan-31 15:04N 35°01' E 140°14'610.8
2016-Jan-31 14:30N 34°58' E 140°08'1111.1
2016-Jan-31 13:33N 34°53' E 139°57'13 9.4
2016-Jan-31 12:11N 34°59' E 139°43'710.6
2016-Jan-31 11:33N 35°06' E 139°45'1110.7
2016-Jan-31 10:33N 35°16' E 139°46'10 9.6
2016-Jan-31 09:33N 35°26' E 139°44'6 5.7
2016-Jan-31 08:33N 35°31' E 139°46'0 0.0
2016-Jan-31 07:33N 35°31' E 139°46'0 0.0
2016-Jan-31 06:33N 35°31' E 139°46'0 0.0
2016-Jan-31 05:33N 35°31' E 139°46'  

Dump ship's entire track history